ADDS METAR Data INFO
IDs: Format: Raw Decoded Include TAF

Data at: 0408 UTC 11 Dec 2017

PGUM 110354Z 10013KT 10SM FEW017 SCT023 31/26 A2980 RMK AO2 SLP082 T03060261
PGUM 110254Z 09012KT 10SM FEW017 SCT026 SCT050 30/26 A2982 RMK AO2 SLP090 T03000256 58021
PGUM 110154Z 09011KT 10SM SCT017 30/27 A2984 RMK AO2 SLP097 T03000267
PGUM 110054Z 09014KT 10SM FEW016 FEW031 30/27 A2987 RMK AO2 SLP107 T03000272
PGUM 110032Z 09014G18KT 9SM SCT014 SCT022 BKN033 29/27 A2988 RMK AO2 T02940272
PGUM 102354Z 09011KT 8SM FEW013 SCT018 BKN026 28/28 A2988 RMK AO2 RAB25E54 SLP111 P0005 60005 T02830278 10294 20272 51005
PGUM 102344Z 09008KT 2 1/2SM -RA BR SCT016 BKN022 BKN028 28/27 A2988 RMK AO2 RAB25 P0000 T02830272
PGUM 102330Z 14006KT 6SM -RA BR BKN014 BKN020 OVC024 28/27 A2988 RMK AO2 RAB25 P0000 T02830272
PGUM 102254Z 10008KT 10SM FEW018 SCT023 29/26 A2988 RMK AO2 SLP111 T02890261
PGUM 102154Z 11008KT 10SM CLR 28/26 A2987 RMK AO2 SLP106 T02830261
PGUM 102054Z 11005KT 10SM FEW031 FEW043 27/27 A2986 RMK AO2 SLP103 T02720267 53015
PGUM 101954Z 11006KT 10SM FEW045 27/26 A2984 RMK AO2 SLP095 T02720256
PGUM 101854Z 11006KT 10SM CLR 28/26 A2982 RMK AO2 SLP088 T02780261
PGUM 101754Z 10009KT 10SM FEW017 SCT025 28/26 A2981 RMK AO2 SLP088 T02780261 10278 20272 58009
PGUM 101654Z 10005KT 10SM FEW014 SCT027 SCT037 28/26 A2982 RMK AO2 SLP091 T02780261
PGUM 101554Z 11008KT 10SM SCT021 28/26 A2983 RMK AO2 SLP094 T02780261
PGUM 101536Z 11008KT 10SM FEW016 SCT023 28/27 A2984 RMK AO2 T02780267
PGUM 101508Z 11008KT 10SM FEW014 BKN021 BKN028 28/27 A2984 RMK AO2 T02780267
PGUM 101454Z 11009KT 080V150 10SM FEW014 SCT021 28/27 A2984 RMK AO2 SLP097 T02780267 56004
PGUM 101354Z 11007KT 10SM FEW014 28/27 A2984 RMK AO2 SLP097 T02780267 403110272
PGUM 101254Z 09009KT 10SM CLR 28/27 A2984 RMK AO2 SLP095 T02780267
PGUM 101154Z 10007KT 10SM FEW016 27/27 A2985 RMK AO2 SLP101 60002 70004 T02720267 10300 20272 50002
PGUM 101054Z 09008KT 10SM CLR 27/27 A2985 RMK AO2 SLP101 T02720267
PGUM 100954Z 08012G15KT 10SM FEW012 SCT016 28/27 A2986 RMK AO2 SLP103 T02780267
PGUM 100854Z 09007KT 10SM FEW014 FEW023 28/27 A2985 RMK AO2 SLP098 60002 T02780267 51013
PGUM 100754Z 10006KT 10SM FEW015 FEW020 27/27 A2984 RMK AO2 RAE01 SLP095 P0000 T02720267
PGUM 100654Z 08011G19KT 4SM -RA BR FEW013 SCT025 BKN037 27/27 A2982 RMK AO2 RAB45 SLP091 P0002 T02720267
PGUM 100554Z 09008KT 10SM SCT017 SCT024 29/26 A2981 RMK AO2 SLP086 60002 T02940261 10311 20278 55010
PGUM 100454Z 09011KT 10SM FEW019 30/26 A2981 RMK AO2 SLP085 T03000261
PGUM 100354Z 10013G17KT 10SM SCT019 31/26 A2982 RMK AO2 SLP091 T03060256
PGUM 100303Z 09014KT 10SM SCT017 SCT026 30/26 A2984 RMK AO2 T03000261
PGUM 100254Z 08016KT 10SM SCT016 BKN024 31/26 A2984 RMK AO2 SLP097 60002 T03060261 58017
PGUM 100216Z 08017G23KT 10SM BKN016 BKN021 31/26 A2986 RMK AO2 T03060261
PGUM 100154Z 09015G24KT 10SM SCT016 30/26 A2986 RMK AO2 SLP103 T03000261
PGUM 100054Z 09015G20KT 4SM HZ FEW015 29/27 A2987 RMK AO2 RAB2355E06 SLP108 P0002 T02940267
PGUM 100007Z 08012KT 4SM BR FEW017 SCT022 SCT030 28/28 A2989 RMK AO2 RAB2355E06 P0002 T02830278
PGUM 092354Z 08016G20KT 4SM HZ SCT016 BKN022 BKN028 29/26 A2989 RMK AO2 SLP114 T02890261 10300 20272 51010
PGUM 092315Z 09014KT 10SM FEW016 SCT021 BKN040 29/26 A2989 RMK AO2 T02940256
PGUM 092305Z 09013KT 10SM SCT016 SCT021 BKN029 29/26 A2990 RMK AO2 T02940261
PGUM 092254Z 10013KT 10SM SCT019 29/26 A2989 RMK AO2 SLP114 T02940261
PGUM 092154Z 08011KT 10SM FEW016 FEW024 SCT029 28/26 A2987 RMK AO2 SLP108 T02780261
PGUM 092054Z 09010KT 10SM CLR 28/26 A2986 RMK AO2 SLP104 T02780256 53010
PGUM 091954Z 08009KT 10SM FEW021 27/26 A2984 RMK AO2 SLP097 T02720256
PGUM 091854Z 07010KT 10SM CLR 27/25 A2983 RMK AO2 SLP092 T02720250
PGUM 091754Z 07008KT 10SM FEW020 27/25 A2983 RMK AO2 SLP094 T02720250 10278 20272 55011
PGUM 091654Z 07009KT 10SM FEW019 28/25 A2983 RMK AO2 SLP093 T02780250